sensor_id;sensor_type;location;lat;lon;timestamp;pressure;altitude;pressure_sealevel;temperature;humidity
68141;BME280;54941;52.220;104.306;2023-04-24T00:00:37;97296.50;;;11.88;31.99
68141;BME280;54941;52.220;104.306;2023-04-24T00:03:04;97301.44;;;11.83;32.06
68141;BME280;54941;52.220;104.306;2023-04-24T00:05:30;97298.06;;;11.55;32.41
68141;BME280;54941;52.220;104.306;2023-04-24T00:07:56;97297.41;;;12.08;31.83
68141;BME280;54941;52.220;104.306;2023-04-24T00:10:23;97307.22;;;12.67;31.24
68141;BME280;54941;52.220;104.306;2023-04-24T00:12:50;97300.13;;;12.95;30.45
68141;BME280;54941;52.220;104.306;2023-04-24T00:15:17;97296.44;;;12.16;31.12
68141;BME280;54941;52.220;104.306;2023-04-24T00:17:43;97303.81;;;11.78;32.38
68141;BME280;54941;52.220;104.306;2023-04-24T00:20:10;97306.72;;;12.37;31.03
68141;BME280;54941;52.220;104.306;2023-04-24T00:22:37;97302.44;;;12.16;31.02
68141;BME280;54941;52.220;104.306;2023-04-24T00:25:03;97295.91;;;12.81;30.56
68141;BME280;54941;52.220;104.306;2023-04-24T00:27:30;97301.84;;;12.68;30.86
68141;BME280;54941;52.220;104.306;2023-04-24T00:29:58;97299.31;;;12.82;30.81
68141;BME280;54941;52.220;104.306;2023-04-24T00:32:24;97304.53;;;13.87;29.05
68141;BME280;54941;52.220;104.306;2023-04-24T00:34:52;97297.72;;;12.27;30.03
68141;BME280;54941;52.220;104.306;2023-04-24T00:37:18;97300.13;;;12.35;29.89
68141;BME280;54941;52.220;104.306;2023-04-24T00:39:45;97299.91;;;14.02;27.69
68141;BME280;54941;52.220;104.306;2023-04-24T00:42:12;97302.97;;;13.53;28.53
68141;BME280;54941;52.220;104.306;2023-04-24T00:44:38;97293.19;;;12.42;29.55
68141;BME280;54941;52.220;104.306;2023-04-24T00:47:07;97293.91;;;12.23;30.32
68141;BME280;54941;52.220;104.306;2023-04-24T00:49:33;97292.50;;;12.20;29.90
68141;BME280;54941;52.220;104.306;2023-04-24T00:52:00;97299.78;;;12.51;30.11
68141;BME280;54941;52.220;104.306;2023-04-24T00:54:26;97301.19;;;14.50;26.78
68141;BME280;54941;52.220;104.306;2023-04-24T00:56:52;97295.41;;;14.42;27.36
68141;BME280;54941;52.220;104.306;2023-04-24T00:59:19;97300.13;;;13.94;27.58
68141;BME280;54941;52.220;104.306;2023-04-24T01:01:45;97296.19;;;14.49;26.32
68141;BME280;54941;52.220;104.306;2023-04-24T01:04:14;97297.53;;;14.65;26.44
68141;BME280;54941;52.220;104.306;2023-04-24T01:06:43;97290.34;;;14.60;26.53
68141;BME280;54941;52.220;104.306;2023-04-24T01:09:10;97292.19;;;15.47;24.89
68141;BME280;54941;52.220;104.306;2023-04-24T01:11:38;97289.53;;;15.78;24.56
68141;BME280;54941;52.220;104.306;2023-04-24T01:14:06;97278.84;;;14.87;26.27
68141;BME280;54941;52.220;104.306;2023-04-24T01:16:32;97281.06;;;17.15;22.90
68141;BME280;54941;52.220;104.306;2023-04-24T01:18:59;97271.97;;;14.99;26.16
68141;BME280;54941;52.220;104.306;2023-04-24T01:21:29;97269.16;;;15.57;25.80
68141;BME280;54941;52.220;104.306;2023-04-24T01:23:57;97268.72;;;16.69;25.42
68141;BME280;54941;52.220;104.306;2023-04-24T01:26:24;97270.78;;;15.76;24.00
68141;BME280;54941;52.220;104.306;2023-04-24T01:28:50;97271.69;;;16.73;24.50
68141;BME280;54941;52.220;104.306;2023-04-24T01:31:17;97268.84;;;15.16;24.66
68141;BME280;54941;52.220;104.306;2023-04-24T01:33:43;97265.31;;;16.69;24.70
68141;BME280;54941;52.220;104.306;2023-04-24T01:36:10;97267.03;;;18.32;21.38
68141;BME280;54941;52.220;104.306;2023-04-24T01:38:37;97264.16;;;17.71;22.80
68141;BME280;54941;52.220;104.306;2023-04-24T01:41:05;97255.53;;;16.34;24.85
68141;BME280;54941;52.220;104.306;2023-04-24T01:43:31;97253.81;;;17.99;23.97
68141;BME280;54941;52.220;104.306;2023-04-24T01:45:58;97250.97;;;17.42;23.60
68141;BME280;54941;52.220;104.306;2023-04-24T01:48:24;97249.81;;;16.07;24.90
68141;BME280;54941;52.220;104.306;2023-04-24T01:50:51;97254.97;;;17.68;23.36
68141;BME280;54941;52.220;104.306;2023-04-24T01:53:18;97255.91;;;16.97;22.77
68141;BME280;54941;52.220;104.306;2023-04-24T01:55:44;97253.34;;;17.56;21.90
68141;BME280;54941;52.220;104.306;2023-04-24T01:58:12;97251.19;;;18.62;21.22
68141;BME280;54941;52.220;104.306;2023-04-24T02:00:38;97251.53;;;18.03;21.84
68141;BME280;54941;52.220;104.306;2023-04-24T02:03:05;97239.13;;;16.93;23.60
68141;BME280;54941;52.220;104.306;2023-04-24T02:05:31;97241.97;;;18.88;20.62
68141;BME280;54941;52.220;104.306;2023-04-24T02:07:57;97248.69;;;19.34;20.30
68141;BME280;54941;52.220;104.306;2023-04-24T02:10:23;97240.16;;;18.60;20.92
68141;BME280;54941;52.220;104.306;2023-04-24T02:12:50;97232.63;;;17.49;22.12
68141;BME280;54941;52.220;104.306;2023-04-24T02:15:18;97232.56;;;19.20;20.31
68141;BME280;54941;52.220;104.306;2023-04-24T02:17:45;97231.78;;;18.58;21.23
68141;BME280;54941;52.220;104.306;2023-04-24T02:20:11;97222.69;;;16.81;21.88
68141;BME280;54941;52.220;104.306;2023-04-24T02:22:37;97223.06;;;17.08;21.88
68141;BME280;54941;52.220;104.306;2023-04-24T02:25:04;97220.59;;;18.34;21.02
68141;BME280;54941;52.220;104.306;2023-04-24T02:27:33;97219.69;;;18.85;20.03
68141;BME280;54941;52.220;104.306;2023-04-24T02:30:00;97218.09;;;20.76;18.12
68141;BME280;54941;52.220;104.306;2023-04-24T02:32:33;97213.25;;;18.20;20.40
68141;BME280;54941;52.220;104.306;2023-04-24T02:34:59;97203.44;;;18.67;19.60
68141;BME280;54941;52.220;104.306;2023-04-24T02:37:25;97208.00;;;18.03;20.72
68141;BME280;54941;52.220;104.306;2023-04-24T02:39:51;97200.34;;;17.73;20.88
68141;BME280;54941;52.220;104.306;2023-04-24T02:42:18;97198.47;;;16.81;22.05
68141;BME280;54941;52.220;104.306;2023-04-24T02:44:44;97200.91;;;19.55;18.81
68141;BME280;54941;52.220;104.306;2023-04-24T02:47:10;97188.06;;;17.16;20.71
68141;BME280;54941;52.220;104.306;2023-04-24T02:49:38;97198.84;;;20.17;18.15
68141;BME280;54941;52.220;104.306;2023-04-24T02:52:05;97189.22;;;17.55;20.14
68141;BME280;54941;52.220;104.306;2023-04-24T02:54:31;97183.91;;;19.19;18.96
68141;BME280;54941;52.220;104.306;2023-04-24T02:56:57;97181.75;;;17.35;20.76
68141;BME280;54941;52.220;104.306;2023-04-24T02:59:24;97183.13;;;18.00;19.76
68141;BME280;54941;52.220;104.306;2023-04-24T03:01:50;97175.94;;;18.19;19.56
68141;BME280;54941;52.220;104.306;2023-04-24T03:04:16;97172.13;;;17.47;20.11
68141;BME280;54941;52.220;104.306;2023-04-24T03:06:45;97170.06;;;18.69;19.17
68141;BME280;54941;52.220;104.306;2023-04-24T03:09:11;97176.41;;;18.16;19.29
68141;BME280;54941;52.220;104.306;2023-04-24T03:11:39;97162.31;;;20.06;17.67
68141;BME280;54941;52.220;104.306;2023-04-24T03:14:05;97164.97;;;19.46;17.63
68141;BME280;54941;52.220;104.306;2023-04-24T03:16:32;97158.72;;;18.63;18.30
68141;BME280;54941;52.220;104.306;2023-04-24T03:18:58;97155.63;;;19.00;18.14
68141;BME280;54941;52.220;104.306;2023-04-24T03:21:24;97145.69;;;17.55;19.59
68141;BME280;54941;52.220;104.306;2023-04-24T03:23:52;97133.28;;;17.85;20.32
68141;BME280;54941;52.220;104.306;2023-04-24T03:26:18;97138.94;;;19.17;17.97
68141;BME280;54941;52.220;104.306;2023-04-24T03:28:45;97142.41;;;20.53;17.00
68141;BME280;54941;52.220;104.306;2023-04-24T03:31:11;97131.97;;;17.48;19.15
68141;BME280;54941;52.220;104.306;2023-04-24T03:33:37;97130.34;;;17.82;19.57
68141;BME280;54941;52.220;104.306;2023-04-24T03:36:04;97137.16;;;19.39;17.92
68141;BME280;54941;52.220;104.306;2023-04-24T03:38:30;97116.00;;;18.69;18.63
68141;BME280;54941;52.220;104.306;2023-04-24T03:40:58;97125.53;;;18.02;19.07
68141;BME280;54941;52.220;104.306;2023-04-24T03:43:24;97112.06;;;17.30;19.79
68141;BME280;54941;52.220;104.306;2023-04-24T03:45:51;97114.63;;;18.50;18.57
68141;BME280;54941;52.220;104.306;2023-04-24T03:48:17;97116.22;;;19.18;18.17
68141;BME280;54941;52.220;104.306;2023-04-24T03:50:43;97116.81;;;17.33;20.05
68141;BME280;54941;52.220;104.306;2023-04-24T03:53:10;97100.94;;;18.43;18.22
68141;BME280;54941;52.220;104.306;2023-04-24T03:55:36;97092.25;;;18.54;19.00
68141;BME280;54941;52.220;104.306;2023-04-24T03:58:04;97094.06;;;18.87;18.48
68141;BME280;54941;52.220;104.306;2023-04-24T04:00:30;97094.03;;;19.20;18.16
68141;BME280;54941;52.220;104.306;2023-04-24T04:02:57;97095.13;;;18.24;19.05
68141;BME280;54941;52.220;104.306;2023-04-24T04:05:23;97099.66;;;20.48;16.45
68141;BME280;54941;52.220;104.306;2023-04-24T04:07:49;97092.25;;;17.81;18.47
68141;BME280;54941;52.220;104.306;2023-04-24T04:10:15;97085.50;;;19.30;17.07
68141;BME280;54941;52.220;104.306;2023-04-24T04:12:42;97080.63;;;19.17;17.50
68141;BME280;54941;52.220;104.306;2023-04-24T04:15:10;97081.38;;;16.97;18.72
68141;BME280;54941;52.220;104.306;2023-04-24T04:17:36;97079.31;;;15.70;20.68
68141;BME280;54941;52.220;104.306;2023-04-24T04:20:03;97071.22;;;17.99;18.13
68141;BME280;54941;52.220;104.306;2023-04-24T04:22:30;97061.97;;;17.40;18.97
68141;BME280;54941;52.220;104.306;2023-04-24T04:24:56;97065.34;;;18.87;17.98
68141;BME280;54941;52.220;104.306;2023-04-24T04:27:23;97068.53;;;16.38;19.82
68141;BME280;54941;52.220;104.306;2023-04-24T04:29:49;97051.81;;;15.92;19.90
68141;BME280;54941;52.220;104.306;2023-04-24T04:32:17;97045.22;;;15.42;20.72
68141;BME280;54941;52.220;104.306;2023-04-24T04:34:43;97046.25;;;16.42;20.63
68141;BME280;54941;52.220;104.306;2023-04-24T04:37:09;97037.16;;;16.10;19.80
68141;BME280;54941;52.220;104.306;2023-04-24T04:39:36;97031.66;;;16.29;19.57
68141;BME280;54941;52.220;104.306;2023-04-24T04:42:02;97028.50;;;16.50;19.65
68141;BME280;54941;52.220;104.306;2023-04-24T04:44:28;97015.56;;;15.49;21.06
68141;BME280;54941;52.220;104.306;2023-04-24T04:46:55;97020.47;;;16.64;19.84
68141;BME280;54941;52.220;104.306;2023-04-24T04:49:23;97011.00;;;16.81;20.26
68141;BME280;54941;52.220;104.306;2023-04-24T04:51:49;97016.56;;;16.08;20.11
68141;BME280;54941;52.220;104.306;2023-04-24T04:54:15;97006.06;;;16.38;19.99
68141;BME280;54941;52.220;104.306;2023-04-24T04:56:42;97007.91;;;16.49;19.72
68141;BME280;54941;52.220;104.306;2023-04-24T04:59:08;97002.84;;;16.66;19.43
68141;BME280;54941;52.220;104.306;2023-04-24T05:01:34;96997.50;;;17.35;18.86
68141;BME280;54941;52.220;104.306;2023-04-24T05:04:01;96987.88;;;16.15;19.89
68141;BME280;54941;52.220;104.306;2023-04-24T05:06:28;96974.38;;;17.39;18.85
68141;BME280;54941;52.220;104.306;2023-04-24T05:08:55;96971.78;;;16.41;19.71
68141;BME280;54941;52.220;104.306;2023-04-24T05:11:21;96960.72;;;17.20;19.26
68141;BME280;54941;52.220;104.306;2023-04-24T05:13:47;96965.38;;;15.19;21.11
68141;BME280;54941;52.220;104.306;2023-04-24T05:16:14;96962.75;;;16.32;19.71
68141;BME280;54941;52.220;104.306;2023-04-24T05:18:40;96950.19;;;16.17;20.63
68141;BME280;54941;52.220;104.306;2023-04-24T05:21:07;96954.63;;;16.28;20.30
68141;BME280;54941;52.220;104.306;2023-04-24T05:23:34;96951.69;;;15.72;20.15
68141;BME280;54941;52.220;104.306;2023-04-24T05:26:01;96939.56;;;16.65;19.41
68141;BME280;54941;52.220;104.306;2023-04-24T05:28:38;96933.94;;;16.96;19.12
68141;BME280;54941;52.220;104.306;2023-04-24T05:31:04;96928.25;;;15.30;20.46
68141;BME280;54941;52.220;104.306;2023-04-24T05:33:31;96936.06;;;16.48;19.65
68141;BME280;54941;52.220;104.306;2023-04-24T05:35:57;96924.38;;;16.04;20.10
68141;BME280;54941;52.220;104.306;2023-04-24T05:38:23;96916.00;;;17.12;19.31
68141;BME280;54941;52.220;104.306;2023-04-24T05:40:51;96911.94;;;16.41;18.50
68141;BME280;54941;52.220;104.306;2023-04-24T05:43:17;96917.50;;;16.44;19.23
68141;BME280;54941;52.220;104.306;2023-04-24T05:45:44;96908.09;;;16.67;19.18
68141;BME280;54941;52.220;104.306;2023-04-24T05:48:10;96903.13;;;16.30;19.31
68141;BME280;54941;52.220;104.306;2023-04-24T05:50:36;96897.50;;;16.10;19.87
68141;BME280;54941;52.220;104.306;2023-04-24T05:53:03;96893.88;;;15.88;19.97
68141;BME280;54941;52.220;104.306;2023-04-24T05:55:30;96883.59;;;16.16;19.68
68141;BME280;54941;52.220;104.306;2023-04-24T05:57:58;96879.91;;;15.18;20.02
68141;BME280;54941;52.220;104.306;2023-04-24T06:00:25;96890.25;;;16.47;19.50
68141;BME280;54941;52.220;104.306;2023-04-24T06:02:51;96877.34;;;15.59;19.94
68141;BME280;54941;52.220;104.306;2023-04-24T06:05:18;96861.09;;;15.87;19.00
68141;BME280;54941;52.220;104.306;2023-04-24T06:07:44;96868.16;;;16.49;18.62
68141;BME280;54941;52.220;104.306;2023-04-24T06:10:10;96868.75;;;16.51;18.97
68141;BME280;54941;52.220;104.306;2023-04-24T06:12:37;96872.22;;;15.52;19.35
68141;BME280;54941;52.220;104.306;2023-04-24T06:15:06;96872.28;;;15.04;19.51
68141;BME280;54941;52.220;104.306;2023-04-24T06:17:33;96848.75;;;15.94;19.45
68141;BME280;54941;52.220;104.306;2023-04-24T06:19:59;96852.75;;;15.02;20.01
68141;BME280;54941;52.220;104.306;2023-04-24T06:22:25;96857.16;;;15.43;20.40
68141;BME280;54941;52.220;104.306;2023-04-24T06:24:52;96847.50;;;15.62;19.65
68141;BME280;54941;52.220;104.306;2023-04-24T06:27:18;96842.13;;;15.33;19.26
68141;BME280;54941;52.220;104.306;2023-04-24T06:29:44;96840.13;;;16.40;19.22
68141;BME280;54941;52.220;104.306;2023-04-24T06:32:12;96844.94;;;15.32;20.16
68141;BME280;54941;52.220;104.306;2023-04-24T06:34:38;96823.25;;;14.12;20.86
68141;BME280;54941;52.220;104.306;2023-04-24T06:37:05;96828.69;;;15.36;19.45
68141;BME280;54941;52.220;104.306;2023-04-24T06:39:31;96818.56;;;15.93;19.18
68141;BME280;54941;52.220;104.306;2023-04-24T06:41:58;96819.50;;;15.87;19.27
68141;BME280;54941;52.220;104.306;2023-04-24T06:44:24;96827.94;;;15.06;18.75
68141;BME280;54941;52.220;104.306;2023-04-24T06:46:50;96815.63;;;15.01;19.67
68141;BME280;54941;52.220;104.306;2023-04-24T06:49:18;96792.41;;;14.77;20.66
68141;BME280;54941;52.220;104.306;2023-04-24T06:51:44;96802.25;;;14.38;20.14
68141;BME280;54941;52.220;104.306;2023-04-24T06:54:11;96799.31;;;15.24;19.56
68141;BME280;54941;52.220;104.306;2023-04-24T06:56:37;96794.25;;;15.29;19.26
68141;BME280;54941;52.220;104.306;2023-04-24T06:59:03;96799.94;;;14.78;19.48
68141;BME280;54941;52.220;104.306;2023-04-24T07:01:30;96797.03;;;14.56;19.77
68141;BME280;54941;52.220;104.306;2023-04-24T07:03:56;96790.25;;;15.15;19.09
68141;BME280;54941;52.220;104.306;2023-04-24T07:06:24;96792.25;;;14.42;19.65
68141;BME280;54941;52.220;104.306;2023-04-24T07:08:50;96786.03;;;14.06;20.17
68141;BME280;54941;52.220;104.306;2023-04-24T07:11:16;96783.81;;;15.18;19.60
68141;BME280;54941;52.220;104.306;2023-04-24T07:13:43;96781.66;;;15.03;19.66
68141;BME280;54941;52.220;104.306;2023-04-24T07:16:09;96784.16;;;14.80;19.83
68141;BME280;54941;52.220;104.306;2023-04-24T07:18:35;96776.25;;;14.75;20.41
68141;BME280;54941;52.220;104.306;2023-04-24T07:21:02;96769.25;;;14.75;19.98
68141;BME280;54941;52.220;104.306;2023-04-24T07:23:30;96754.41;;;14.94;20.39
68141;BME280;54941;52.220;104.306;2023-04-24T07:25:56;96762.13;;;15.12;20.02
68141;BME280;54941;52.220;104.306;2023-04-24T07:28:22;96750.06;;;15.18;19.96
68141;BME280;54941;52.220;104.306;2023-04-24T07:30:48;96747.50;;;15.41;19.82
68141;BME280;54941;52.220;104.306;2023-04-24T07:33:15;96758.22;;;14.80;20.06
68141;BME280;54941;52.220;104.306;2023-04-24T07:35:41;96752.13;;;14.08;20.68
68141;BME280;54941;52.220;104.306;2023-04-24T07:38:07;96739.81;;;14.22;20.75
68141;BME280;54941;52.220;104.306;2023-04-24T07:40:35;96734.91;;;14.13;20.60
68141;BME280;54941;52.220;104.306;2023-04-24T07:43:01;96735.47;;;14.63;20.76
68141;BME280;54941;52.220;104.306;2023-04-24T07:45:28;96735.16;;;15.13;19.83
68141;BME280;54941;52.220;104.306;2023-04-24T07:47:54;96729.44;;;14.70;20.38
68141;BME280;54941;52.220;104.306;2023-04-24T07:50:21;96719.19;;;14.86;20.27
68141;BME280;54941;52.220;104.306;2023-04-24T07:52:48;96721.03;;;13.90;21.48
68141;BME280;54941;52.220;104.306;2023-04-24T07:55:14;96713.72;;;14.35;21.42
68141;BME280;54941;52.220;104.306;2023-04-24T07:57:42;96722.50;;;14.52;21.10
68141;BME280;54941;52.220;104.306;2023-04-24T08:00:09;96720.66;;;14.52;20.75
68141;BME280;54941;52.220;104.306;2023-04-24T08:02:36;96705.84;;;13.75;21.53
68141;BME280;54941;52.220;104.306;2023-04-24T08:05:02;96714.25;;;14.85;20.46
68141;BME280;54941;52.220;104.306;2023-04-24T08:07:30;96705.22;;;14.99;20.28
68141;BME280;54941;52.220;104.306;2023-04-24T08:09:57;96708.59;;;14.46;20.69
68141;BME280;54941;52.220;104.306;2023-04-24T08:12:23;96706.00;;;14.28;21.24
68141;BME280;54941;52.220;104.306;2023-04-24T08:14:51;96705.66;;;14.84;20.94
68141;BME280;54941;52.220;104.306;2023-04-24T08:17:17;96696.81;;;14.62;20.48
68141;BME280;54941;52.220;104.306;2023-04-24T08:19:44;96694.38;;;14.49;21.16
68141;BME280;54941;52.220;104.306;2023-04-24T08:22:10;96687.75;;;14.53;21.33
68141;BME280;54941;52.220;104.306;2023-04-24T08:24:36;96686.91;;;14.11;21.74
68141;BME280;54941;52.220;104.306;2023-04-24T08:27:03;96670.56;;;14.82;20.75
68141;BME280;54941;52.220;104.306;2023-04-24T08:29:29;96666.16;;;14.71;21.05
68141;BME280;54941;52.220;104.306;2023-04-24T08:31:57;96675.03;;;14.75;20.92
68141;BME280;54941;52.220;104.306;2023-04-24T08:34:23;96668.72;;;13.81;21.32
68141;BME280;54941;52.220;104.306;2023-04-24T08:36:49;96669.38;;;14.25;21.10
68141;BME280;54941;52.220;104.306;2023-04-24T08:39:17;96664.34;;;13.82;21.60
68141;BME280;54941;52.220;104.306;2023-04-24T08:41:44;96663.47;;;14.36;20.83
68141;BME280;54941;52.220;104.306;2023-04-24T08:44:10;96654.50;;;14.32;21.45
68141;BME280;54941;52.220;104.306;2023-04-24T08:46:37;96648.59;;;14.43;20.92
68141;BME280;54941;52.220;104.306;2023-04-24T08:49:05;96653.25;;;14.64;20.68
68141;BME280;54941;52.220;104.306;2023-04-24T08:51:31;96650.31;;;14.60;21.07
68141;BME280;54941;52.220;104.306;2023-04-24T08:53:59;96646.13;;;14.48;20.80
68141;BME280;54941;52.220;104.306;2023-04-24T08:56:27;96658.81;;;14.08;21.01
68141;BME280;54941;52.220;104.306;2023-04-24T08:58:54;96651.69;;;14.33;21.22
68141;BME280;54941;52.220;104.306;2023-04-24T09:01:20;96640.41;;;14.69;21.00
68141;BME280;54941;52.220;104.306;2023-04-24T09:03:48;96641.88;;;14.65;20.91
68141;BME280;54941;52.220;104.306;2023-04-24T09:06:18;96628.97;;;14.17;20.96
68141;BME280;54941;52.220;104.306;2023-04-24T09:08:45;96631.97;;;14.32;20.84
68141;BME280;54941;52.220;104.306;2023-04-24T09:11:13;96626.09;;;14.25;20.52
68141;BME280;54941;52.220;104.306;2023-04-24T09:13:39;96638.34;;;14.18;20.63
68141;BME280;54941;52.220;104.306;2023-04-24T09:16:06;96632.72;;;13.91;21.14
68141;BME280;54941;52.220;104.306;2023-04-24T09:18:32;96611.84;;;14.16;20.68
68141;BME280;54941;52.220;104.306;2023-04-24T09:21:00;96619.16;;;14.19;20.74
68141;BME280;54941;52.220;104.306;2023-04-24T09:23:29;96615.66;;;14.13;20.99
68141;BME280;54941;52.220;104.306;2023-04-24T09:25:56;96623.41;;;14.02;20.33
68141;BME280;54941;52.220;104.306;2023-04-24T09:28:28;96626.75;;;14.21;21.05
68141;BME280;54941;52.220;104.306;2023-04-24T09:31:06;96611.19;;;14.21;20.59
68141;BME280;54941;52.220;104.306;2023-04-24T09:33:33;96619.25;;;14.12;21.26
68141;BME280;54941;52.220;104.306;2023-04-24T09:35:59;96617.31;;;13.96;21.21
68141;BME280;54941;52.220;104.306;2023-04-24T09:38:33;96614.66;;;14.14;21.11
68141;BME280;54941;52.220;104.306;2023-04-24T09:41:00;96599.09;;;14.56;20.67
68141;BME280;54941;52.220;104.306;2023-04-24T09:43:27;96613.53;;;13.62;21.02
68141;BME280;54941;52.220;104.306;2023-04-24T09:45:55;96596.28;;;14.16;20.92
68141;BME280;54941;52.220;104.306;2023-04-24T09:48:30;96600.72;;;13.97;20.68
68141;BME280;54941;52.220;104.306;2023-04-24T09:50:56;96599.78;;;13.80;20.96
68141;BME280;54941;52.220;104.306;2023-04-24T09:53:24;96600.69;;;13.56;21.29
68141;BME280;54941;52.220;104.306;2023-04-24T09:55:53;96595.16;;;13.52;21.34
68141;BME280;54941;52.220;104.306;2023-04-24T09:58:24;96590.81;;;13.94;21.54
68141;BME280;54941;52.220;104.306;2023-04-24T10:00:53;96600.50;;;13.69;21.25
68141;BME280;54941;52.220;104.306;2023-04-24T10:03:20;96591.19;;;13.80;20.92
68141;BME280;54941;52.220;104.306;2023-04-24T10:05:47;96582.72;;;14.02;21.04
68141;BME280;54941;52.220;104.306;2023-04-24T10:08:14;96582.19;;;14.12;21.05
68141;BME280;54941;52.220;104.306;2023-04-24T10:10:41;96575.56;;;13.86;21.18
68141;BME280;54941;52.220;104.306;2023-04-24T10:13:10;96577.94;;;13.88;21.25
68141;BME280;54941;52.220;104.306;2023-04-24T10:15:37;96574.97;;;13.73;21.60
68141;BME280;54941;52.220;104.306;2023-04-24T10:18:05;96573.06;;;14.09;21.23
68141;BME280;54941;52.220;104.306;2023-04-24T10:20:31;96579.50;;;13.77;21.36
68141;BME280;54941;52.220;104.306;2023-04-24T10:22:58;96573.06;;;13.32;21.38
68141;BME280;54941;52.220;104.306;2023-04-24T10:25:29;96571.50;;;13.06;21.45
68141;BME280;54941;52.220;104.306;2023-04-24T10:27:57;96560.25;;;13.00;21.41
68141;BME280;54941;52.220;104.306;2023-04-24T10:30:26;96569.66;;;13.31;21.02
68141;BME280;54941;52.220;104.306;2023-04-24T10:32:53;96568.97;;;13.24;21.24
68141;BME280;54941;52.220;104.306;2023-04-24T10:35:20;96567.78;;;13.56;21.10
68141;BME280;54941;52.220;104.306;2023-04-24T10:37:48;96561.91;;;13.79;20.91
68141;BME280;54941;52.220;104.306;2023-04-24T10:40:18;96555.63;;;13.57;21.21
68141;BME280;54941;52.220;104.306;2023-04-24T10:42:47;96555.66;;;13.21;21.76
68141;BME280;54941;52.220;104.306;2023-04-24T10:45:17;96556.75;;;13.13;21.74
68141;BME280;54941;52.220;104.306;2023-04-24T10:48:01;96558.75;;;13.11;22.04
68141;BME280;54941;52.220;104.306;2023-04-24T10:50:29;96556.94;;;12.93;22.01
68141;BME280;54941;52.220;104.306;2023-04-24T10:53:06;96547.34;;;12.76;22.30
68141;BME280;54941;52.220;104.306;2023-04-24T10:55:44;96551.09;;;12.98;22.45
68141;BME280;54941;52.220;104.306;2023-04-24T10:58:11;96540.66;;;13.11;22.28
68141;BME280;54941;52.220;104.306;2023-04-24T11:00:38;96548.13;;;12.76;22.37
68141;BME280;54941;52.220;104.306;2023-04-24T11:03:22;96539.63;;;12.26;22.23
68141;BME280;54941;52.220;104.306;2023-04-24T11:06:00;96529.09;;;12.46;22.78
68141;BME280;54941;52.220;104.306;2023-04-24T11:08:29;96535.97;;;12.09;22.83
68141;BME280;54941;52.220;104.306;2023-04-24T11:10:57;96532.34;;;11.85;23.18
68141;BME280;54941;52.220;104.306;2023-04-24T11:13:25;96531.19;;;11.81;23.37
68141;BME280;54941;52.220;104.306;2023-04-24T11:16:14;96520.41;;;11.46;23.59
68141;BME280;54941;52.220;104.306;2023-04-24T11:18:44;96518.84;;;11.83;23.33
68141;BME280;54941;52.220;104.306;2023-04-24T11:21:11;96512.25;;;11.49;23.77
68141;BME280;54941;52.220;104.306;2023-04-24T11:23:38;96510.94;;;11.78;23.45
68141;BME280;54941;52.220;104.306;2023-04-24T11:26:10;96504.91;;;11.53;24.00
68141;BME280;54941;52.220;104.306;2023-04-24T11:28:37;96513.34;;;11.73;23.99
68141;BME280;54941;52.220;104.306;2023-04-24T11:34:10;96507.78;;;11.69;24.37
68141;BME280;54941;52.220;104.306;2023-04-24T11:36:37;96505.72;;;11.47;24.62
68141;BME280;54941;52.220;104.306;2023-04-24T11:39:03;96504.31;;;11.51;24.55
68141;BME280;54941;52.220;104.306;2023-04-24T11:41:30;96501.19;;;11.42;24.94
68141;BME280;54941;52.220;104.306;2023-04-24T11:43:57;96494.22;;;11.43;24.49
68141;BME280;54941;52.220;104.306;2023-04-24T11:46:27;96489.56;;;11.20;24.60
68141;BME280;54941;52.220;104.306;2023-04-24T11:48:53;96478.19;;;11.41;24.48
68141;BME280;54941;52.220;104.306;2023-04-24T11:51:22;96477.22;;;11.29;24.03
68141;BME280;54941;52.220;104.306;2023-04-24T11:53:50;96474.72;;;11.15;24.58
68141;BME280;54941;52.220;104.306;2023-04-24T11:56:18;96481.47;;;11.10;24.34
68141;BME280;54941;52.220;104.306;2023-04-24T11:58:44;96481.00;;;10.82;24.60
68141;BME280;54941;52.220;104.306;2023-04-24T12:01:11;96470.41;;;11.03;24.64
68141;BME280;54941;52.220;104.306;2023-04-24T12:03:37;96471.16;;;10.59;24.92
68141;BME280;54941;52.220;104.306;2023-04-24T12:06:07;96470.97;;;10.47;25.45
68141;BME280;54941;52.220;104.306;2023-04-24T12:08:35;96469.00;;;10.43;24.94
68141;BME280;54941;52.220;104.306;2023-04-24T12:11:02;96467.25;;;10.23;25.12
68141;BME280;54941;52.220;104.306;2023-04-24T12:13:29;96464.47;;;10.18;25.50
68141;BME280;54941;52.220;104.306;2023-04-24T12:15:56;96462.88;;;10.17;25.63
68141;BME280;54941;52.220;104.306;2023-04-24T12:18:23;96457.09;;;10.02;25.33
68141;BME280;54941;52.220;104.306;2023-04-24T12:20:50;96464.44;;;9.99;25.43
68141;BME280;54941;52.220;104.306;2023-04-24T12:23:16;96455.91;;;9.65;26.20
68141;BME280;54941;52.220;104.306;2023-04-24T12:26:04;96463.44;;;9.73;26.35
68141;BME280;54941;52.220;104.306;2023-04-24T12:28:35;96466.38;;;9.51;26.62
68141;BME280;54941;52.220;104.306;2023-04-24T12:31:01;96465.97;;;9.41;26.51
68141;BME280;54941;52.220;104.306;2023-04-24T12:33:28;96461.00;;;9.26;26.90
68141;BME280;54941;52.220;104.306;2023-04-24T12:35:58;96461.28;;;9.70;26.35
68141;BME280;54941;52.220;104.306;2023-04-24T12:38:27;96461.31;;;9.10;26.52
68141;BME280;54941;52.220;104.306;2023-04-24T12:41:03;96472.66;;;9.22;27.19
68141;BME280;54941;52.220;104.306;2023-04-24T12:43:30;96467.13;;;9.25;26.51